createdAt,value
2023-02-27T00:00:16.597Z,1.00
2023-02-27T00:02:45.872Z,0.91
2023-02-27T00:05:13.563Z,0.86
2023-02-27T00:07:40.628Z,0.91
2023-02-27T00:10:08.371Z,0.85
2023-02-27T00:12:39.188Z,0.93
2023-02-27T00:15:11.694Z,0.94
2023-02-27T00:17:38.865Z,0.96
2023-02-27T00:20:07.756Z,0.91
2023-02-27T00:22:34.313Z,0.93
2023-02-27T00:25:00.906Z,0.91
2023-02-27T00:27:27.772Z,0.91
2023-02-27T00:29:54.347Z,0.87
2023-02-27T00:32:21.278Z,0.81
2023-02-27T00:34:48.030Z,0.85
2023-02-27T00:37:14.735Z,0.83
2023-02-27T00:39:41.337Z,0.86
2023-02-27T00:42:08.139Z,0.81
2023-02-27T00:44:35.058Z,0.81
2023-02-27T00:47:01.975Z,0.72
2023-02-27T00:49:28.562Z,0.59
2023-02-27T00:51:55.126Z,0.55
2023-02-27T00:54:23.533Z,0.54
2023-02-27T00:56:50.246Z,0.49
2023-02-27T00:59:17.218Z,0.39
2023-02-27T01:01:45.182Z,0.30
2023-02-27T01:04:11.782Z,0.30
2023-02-27T01:06:38.461Z,0.25
2023-02-27T01:09:05.329Z,0.20
2023-02-27T01:11:32.326Z,0.15
2023-02-27T01:14:00.165Z,0.12
2023-02-27T01:16:26.809Z,0.10
2023-02-27T01:18:53.966Z,0.12
2023-02-27T01:21:23.309Z,0.13
2023-02-27T01:23:50.134Z,0.21
2023-02-27T01:26:19.356Z,0.18
2023-02-27T01:28:46.885Z,0.11
2023-02-27T01:31:14.168Z,0.10
2023-02-27T01:33:40.740Z,0.12
2023-02-27T01:36:07.902Z,0.10
2023-02-27T01:38:34.753Z,0.12
2023-02-27T01:41:01.397Z,0.15
2023-02-27T01:43:28.365Z,0.08
2023-02-27T01:45:55.615Z,0.04
2023-02-27T01:48:27.139Z,-0.02
2023-02-27T01:51:12.296Z,-0.01
2023-02-27T01:53:41.085Z,0.01
2023-02-27T01:56:11.228Z,0.05
2023-02-27T01:58:38.514Z,0.04
2023-02-27T02:01:05.453Z,0.08
2023-02-27T02:04:01.033Z,0.04
2023-02-27T02:06:35.536Z,0.04
2023-02-27T02:09:03.780Z,0.00
2023-02-27T02:11:30.344Z,-0.11
2023-02-27T02:14:00.059Z,-0.11
2023-02-27T02:16:35.579Z,-0.06
2023-02-27T02:19:35.793Z,-0.11
2023-02-27T02:22:48.360Z,-0.35
2023-02-27T02:25:42.672Z,-0.45
2023-02-27T02:28:18.235Z,-0.32
2023-02-27T02:31:12.553Z,-0.23
2023-02-27T02:34:00.333Z,-0.30
2023-02-27T02:36:38.760Z,-0.34
2023-02-27T02:39:12.080Z,-0.34
2023-02-27T02:42:04.972Z,-0.20
2023-02-27T02:45:11.240Z,-0.25
2023-02-27T02:48:03.718Z,-0.17
2023-02-27T02:50:53.969Z,-0.23
2023-02-27T02:53:36.720Z,-0.40
2023-02-27T02:56:19.696Z,-0.48
2023-02-27T02:58:49.490Z,-0.50
2023-02-27T03:01:22.876Z,-0.56
2023-02-27T03:04:05.922Z,-0.60
2023-02-27T03:06:36.214Z,-0.48
2023-02-27T03:09:11.819Z,-0.46
2023-02-27T03:11:43.102Z,-0.53
2023-02-27T03:14:25.889Z,-0.49
2023-02-27T03:16:56.070Z,-0.57
2023-02-27T03:19:31.048Z,-0.46
2023-02-27T03:22:05.378Z,-0.44
2023-02-27T03:24:50.193Z,-0.42
2023-02-27T03:27:18.983Z,-0.31
2023-02-27T03:29:58.143Z,-0.38
2023-02-27T03:32:31.579Z,-0.45
2023-02-27T03:34:59.000Z,-0.45
2023-02-27T03:37:58.186Z,-0.56
2023-02-27T03:40:52.493Z,-0.61
2023-02-27T03:43:38.668Z,-0.64
2023-02-27T03:46:08.472Z,-0.77
2023-02-27T03:48:35.279Z,-0.90
2023-02-27T03:51:02.355Z,-0.95
2023-02-27T03:53:37.496Z,-0.79
2023-02-27T03:56:07.741Z,-0.78
2023-02-27T03:58:35.379Z,-0.83
2023-02-27T04:01:02.357Z,-0.80
2023-02-27T04:03:32.919Z,-0.81
2023-02-27T04:06:19.816Z,-0.79
2023-02-27T04:08:58.756Z,-0.75
2023-02-27T04:11:37.290Z,-0.88
2023-02-27T04:14:10.862Z,-0.87
2023-02-27T04:16:52.679Z,-0.88
2023-02-27T04:19:48.579Z,-0.88
2023-02-27T04:22:28.822Z,-0.90
2023-02-27T04:25:20.928Z,-1.03
2023-02-27T04:27:57.839Z,-1.11
2023-02-27T04:30:52.083Z,-1.05
2023-02-27T04:33:53.832Z,-0.94
2023-02-27T04:36:30.381Z,-0.90
2023-02-27T04:39:05.696Z,-0.90
2023-02-27T04:41:43.384Z,-0.94
2023-02-27T04:44:12.533Z,-0.91
2023-02-27T04:46:42.671Z,-0.92
2023-02-27T04:49:16.376Z,-0.92
2023-02-27T04:51:48.015Z,-0.99
2023-02-27T04:54:22.557Z,-1.02
2023-02-27T04:56:56.621Z,-1.02
2023-02-27T04:59:36.148Z,-1.03
2023-02-27T05:02:14.845Z,-0.97
2023-02-27T05:04:44.942Z,-0.96
2023-02-27T05:07:17.596Z,-0.94
2023-02-27T05:09:58.251Z,-0.95
2023-02-27T05:12:47.749Z,-0.98
2023-02-27T05:15:24.738Z,-0.93
2023-02-27T05:18:14.701Z,-0.99
2023-02-27T05:20:41.366Z,-1.03
2023-02-27T05:23:32.070Z,-1.07
2023-02-27T05:26:05.982Z,-1.11
2023-02-27T05:28:47.579Z,-1.10
2023-02-27T05:31:28.535Z,-1.10
2023-02-27T05:34:12.358Z,-1.15
2023-02-27T05:37:07.139Z,-1.10
2023-02-27T05:39:37.328Z,-1.07
2023-02-27T05:42:17.264Z,-1.10
2023-02-27T05:44:50.384Z,-1.20
2023-02-27T05:47:20.299Z,-1.22
2023-02-27T05:49:52.344Z,-1.14
2023-02-27T05:52:23.162Z,-1.12
2023-02-27T05:55:06.498Z,-1.07
2023-02-27T05:57:39.855Z,-1.05
2023-02-27T06:00:21.554Z,-1.05
2023-02-27T06:02:48.531Z,-1.10
2023-02-27T06:05:17.879Z,-1.11
2023-02-27T06:07:44.576Z,-1.05
2023-02-27T06:10:15.011Z,-1.04
2023-02-27T06:12:41.863Z,-1.07
2023-02-27T06:15:09.274Z,-1.07
2023-02-27T06:17:36.046Z,-1.17
2023-02-27T06:20:04.122Z,-1.17
2023-02-27T06:22:30.836Z,-1.24
2023-02-27T06:24:57.384Z,-1.27
2023-02-27T06:27:24.049Z,-1.25
2023-02-27T06:29:50.627Z,-1.23
2023-02-27T06:32:17.282Z,-1.25
2023-02-27T06:34:43.925Z,-1.23
2023-02-27T06:37:10.436Z,-1.23
2023-02-27T06:39:37.615Z,-1.23
2023-02-27T06:42:04.460Z,-1.06
2023-02-27T06:44:31.050Z,-1.05
2023-02-27T06:46:57.689Z,-0.99
2023-02-27T06:49:24.262Z,-0.98
2023-02-27T06:51:50.908Z,-0.95
2023-02-27T06:54:17.544Z,-0.95
2023-02-27T06:56:44.106Z,-0.91
2023-02-27T06:59:11.178Z,-0.93
2023-02-27T07:01:37.920Z,-0.89
2023-02-27T07:04:04.665Z,-0.90
2023-02-27T07:07:35.608Z,-0.83
2023-02-27T07:09:18.368Z,-0.82
2023-02-27T07:11:45.081Z,-0.77
2023-02-27T07:14:12.571Z,-0.73
2023-02-27T07:16:39.289Z,-0.74
2023-02-27T07:19:07.444Z,-0.75
2023-02-27T07:21:35.267Z,-0.69
2023-02-27T07:24:04.606Z,-0.55
2023-02-27T07:26:31.198Z,-0.42
2023-02-27T07:28:57.977Z,-0.34
2023-02-27T07:31:24.712Z,-0.31
2023-02-27T07:33:51.407Z,-0.24
2023-02-27T07:36:17.908Z,-0.14
2023-02-27T07:38:44.703Z,-0.05
2023-02-27T07:41:21.270Z,-0.01
2023-02-27T07:43:59.243Z,0.09
2023-02-27T07:46:27.648Z,0.13
2023-02-27T07:48:54.969Z,0.14
2023-02-27T07:51:21.939Z,0.24
2023-02-27T07:53:48.567Z,0.35
2023-02-27T07:56:15.476Z,0.36
2023-02-27T07:58:42.054Z,0.45
2023-02-27T08:01:08.588Z,0.52
2023-02-27T08:03:35.224Z,0.65
2023-02-27T08:06:02.420Z,0.66
2023-02-27T08:08:29.870Z,0.79
2023-02-27T08:10:56.526Z,0.78
2023-02-27T08:13:35.965Z,0.86
2023-02-27T08:16:09.880Z,0.91
2023-02-27T08:18:36.675Z,0.99
2023-02-27T08:21:05.049Z,1.05
2023-02-27T08:23:33.105Z,1.14
2023-02-27T08:26:01.186Z,1.19
2023-02-27T08:28:28.548Z,1.21
2023-02-27T08:30:55.795Z,1.30
2023-02-27T08:33:22.692Z,1.35
2023-02-27T08:35:49.304Z,1.44
2023-02-27T08:38:15.926Z,1.47
2023-02-27T08:40:43.516Z,1.56
2023-02-27T08:43:10.300Z,1.69
2023-02-27T08:45:36.973Z,1.75
2023-02-27T08:48:03.849Z,1.78
2023-02-27T08:50:30.494Z,1.88
2023-02-27T08:52:57.071Z,2.03
2023-02-27T08:55:23.761Z,2.08
2023-02-27T08:57:50.386Z,2.08
2023-02-27T09:00:17.753Z,2.10
2023-02-27T09:02:44.491Z,2.20
2023-02-27T09:05:11.441Z,2.28
2023-02-27T09:07:38.005Z,2.35
2023-02-27T09:10:06.119Z,2.43
2023-02-27T09:12:32.914Z,2.52
2023-02-27T09:14:59.669Z,2.64
2023-02-27T09:17:26.454Z,2.66
2023-02-27T09:19:53.356Z,2.75
2023-02-27T09:22:20.135Z,2.83
2023-02-27T09:24:46.813Z,2.91
2023-02-27T09:27:13.572Z,3.06
2023-02-27T09:29:40.127Z,3.21
2023-02-27T09:32:07.146Z,3.36
2023-02-27T09:34:33.850Z,3.46
2023-02-27T09:37:01.299Z,3.62
2023-02-27T09:39:29.824Z,3.69
2023-02-27T09:42:06.603Z,3.69
2023-02-27T09:44:46.980Z,3.83
2023-02-27T09:47:25.292Z,3.90
2023-02-27T09:50:27.905Z,4.07
2023-02-27T09:52:55.042Z,4.09
2023-02-27T09:55:23.320Z,4.09
2023-02-27T09:57:58.199Z,4.11
2023-02-27T10:00:49.185Z,4.17
2023-02-27T10:03:48.252Z,4.26
2023-02-27T10:06:31.019Z,4.23
2023-02-27T10:09:22.497Z,4.19
2023-02-27T10:12:18.522Z,4.20
2023-02-27T10:14:57.664Z,4.32
2023-02-27T10:17:30.706Z,4.43
2023-02-27T10:20:00.367Z,4.50
2023-02-27T10:22:40.040Z,4.55
2023-02-27T10:25:29.753Z,4.72
2023-02-27T10:28:05.524Z,4.76
2023-02-27T10:30:34.942Z,4.81
2023-02-27T10:33:07.873Z,4.85
2023-02-27T10:35:37.730Z,4.86
2023-02-27T10:38:12.008Z,5.06
2023-02-27T10:40:42.051Z,5.12
2023-02-27T10:43:08.727Z,5.17
2023-02-27T10:45:36.971Z,5.15
2023-02-27T10:48:05.860Z,5.23
2023-02-27T10:50:36.936Z,5.30
2023-02-27T10:53:16.710Z,5.33
2023-02-27T10:55:47.745Z,5.37
2023-02-27T10:58:21.998Z,5.55
2023-02-27T11:00:56.378Z,5.49
2023-02-27T11:03:26.567Z,5.53
2023-02-27T11:05:59.855Z,5.54
2023-02-27T11:08:29.622Z,5.56
2023-02-27T11:11:06.134Z,5.66
2023-02-27T11:13:35.601Z,5.70
2023-02-27T11:16:07.403Z,5.77
2023-02-27T11:18:35.755Z,5.73
2023-02-27T11:21:15.963Z,5.88
2023-02-27T11:23:55.188Z,5.86
2023-02-27T11:26:35.097Z,5.80
2023-02-27T11:29:18.476Z,5.93
2023-02-27T11:31:58.200Z,5.91
2023-02-27T11:34:32.406Z,6.02
2023-02-27T11:37:02.084Z,6.14
2023-02-27T11:39:31.206Z,6.10
2023-02-27T11:42:05.583Z,6.17
2023-02-27T11:44:34.605Z,6.09
2023-02-27T11:47:23.028Z,6.10
2023-02-27T11:49:49.715Z,6.31
2023-02-27T11:52:54.132Z,6.32
2023-02-27T11:55:25.034Z,6.47
2023-02-27T11:58:02.326Z,6.60
2023-02-27T12:00:45.524Z,6.77
2023-02-27T12:03:17.687Z,6.66
2023-02-27T12:05:50.574Z,6.99
2023-02-27T12:08:42.220Z,6.94
2023-02-27T12:11:32.896Z,6.83
2023-02-27T12:14:09.063Z,6.73
2023-02-27T12:16:59.238Z,6.56
2023-02-27T12:19:53.244Z,6.70
2023-02-27T12:22:29.708Z,6.63
2023-02-27T12:25:07.686Z,6.59
2023-02-27T12:27:46.460Z,6.76
2023-02-27T12:30:24.299Z,6.79
2023-02-27T12:33:10.067Z,6.93
2023-02-27T12:35:36.729Z,6.85
2023-02-27T12:38:06.288Z,7.21
2023-02-27T12:40:43.989Z,7.67
2023-02-27T12:43:26.551Z,7.68
2023-02-27T12:46:07.961Z,7.89
2023-02-27T12:48:44.053Z,7.92
2023-02-27T12:51:31.717Z,8.12
2023-02-27T12:54:27.928Z,8.37
2023-02-27T12:57:02.483Z,8.32
2023-02-27T12:59:51.856Z,8.25
2023-02-27T13:02:27.314Z,8.42
2023-02-27T13:05:32.186Z,8.44
2023-02-27T13:08:38.270Z,8.31
2023-02-27T13:11:18.823Z,7.99
2023-02-27T13:13:53.263Z,7.76
2023-02-27T13:16:28.820Z,7.68
2023-02-27T13:19:26.646Z,7.65
2023-02-27T13:22:22.599Z,7.58
2023-02-27T13:24:56.344Z,7.44
2023-02-27T13:27:28.632Z,7.23
2023-02-27T13:30:08.638Z,7.13
2023-02-27T13:32:48.742Z,7.13
2023-02-27T13:35:57.059Z,6.87
2023-02-27T13:38:34.430Z,6.70
2023-02-27T13:41:25.478Z,6.83
2023-02-27T13:44:46.181Z,7.03
2023-02-27T13:47:30.916Z,7.15
2023-02-27T13:49:59.157Z,7.23
2023-02-27T13:52:29.670Z,7.27
2023-02-27T13:54:59.860Z,7.28
2023-02-27T13:57:35.355Z,7.43
2023-02-27T14:00:08.953Z,7.41
2023-02-27T14:02:59.973Z,7.24
2023-02-27T14:05:36.600Z,7.29
2023-02-27T14:08:12.439Z,7.19
2023-02-27T14:10:49.994Z,7.30
2023-02-27T14:13:51.095Z,7.41
2023-02-27T14:16:44.173Z,7.29
2023-02-27T14:19:17.194Z,7.39
2023-02-27T14:22:03.446Z,7.34
2023-02-27T14:25:02.632Z,7.44
2023-02-27T14:27:48.158Z,7.38
2023-02-27T14:30:37.831Z,7.46
2023-02-27T14:33:39.622Z,7.42
2023-02-27T14:36:18.876Z,7.55
2023-02-27T14:38:46.550Z,7.52
2023-02-27T14:41:44.984Z,7.55
2023-02-27T14:44:20.344Z,7.53
2023-02-27T14:46:50.197Z,7.52
2023-02-27T14:49:23.868Z,7.38
2023-02-27T14:51:51.140Z,7.39
2023-02-27T14:54:21.192Z,7.28
2023-02-27T14:57:04.268Z,7.16
2023-02-27T14:59:34.201Z,7.04
2023-02-27T15:02:04.275Z,7.06
2023-02-27T15:04:33.060Z,7.07
2023-02-27T15:07:00.851Z,7.31
2023-02-27T15:09:34.745Z,7.26
2023-02-27T15:12:04.356Z,7.22
2023-02-27T15:14:36.280Z,7.27
2023-02-27T15:17:04.042Z,7.24
2023-02-27T15:19:30.732Z,7.23
2023-02-27T15:22:05.180Z,7.10
2023-02-27T15:24:49.126Z,6.98
2023-02-27T15:27:21.324Z,6.86
2023-02-27T15:29:54.761Z,6.75
2023-02-27T15:32:28.931Z,6.64
2023-02-27T15:34:58.320Z,6.71
2023-02-27T15:37:28.835Z,6.76
2023-02-27T15:39:57.025Z,6.72
2023-02-27T15:42:33.537Z,6.76
2023-02-27T15:45:00.236Z,6.83
2023-02-27T15:47:30.808Z,6.81
2023-02-27T15:50:08.631Z,6.79
2023-02-27T15:53:09.456Z,6.73
2023-02-27T15:55:40.783Z,6.67
2023-02-27T15:58:25.157Z,6.59
2023-02-27T16:01:00.885Z,6.57
2023-02-27T16:03:34.273Z,6.49
2023-02-27T16:06:01.519Z,6.44
2023-02-27T16:08:31.408Z,6.40
2023-02-27T16:10:58.176Z,6.31
2023-02-27T16:13:27.771Z,6.16
2023-02-27T16:16:07.263Z,6.13
2023-02-27T16:18:46.422Z,6.09
2023-02-27T16:21:15.957Z,6.07
2023-02-27T16:23:43.881Z,6.03
2023-02-27T16:26:27.481Z,5.94
2023-02-27T16:29:03.742Z,6.03
2023-02-27T16:31:36.164Z,6.02
2023-02-27T16:34:13.456Z,5.88
2023-02-27T16:36:42.403Z,5.92
2023-02-27T16:39:13.274Z,5.83
2023-02-27T16:41:40.269Z,5.68
2023-02-27T16:44:06.992Z,5.72
2023-02-27T16:46:33.659Z,5.81
2023-02-27T16:49:14.246Z,5.66
2023-02-27T16:51:46.123Z,5.55
2023-02-27T16:54:13.969Z,5.50
2023-02-27T16:56:41.112Z,5.30
2023-02-27T16:59:07.928Z,5.47
2023-02-27T17:01:34.882Z,5.38
2023-02-27T17:04:02.090Z,5.32
2023-02-27T17:06:30.762Z,5.04
2023-02-27T17:08:58.029Z,4.93
2023-02-27T17:11:26.581Z,4.95
2023-02-27T17:13:54.378Z,4.89
2023-02-27T17:16:22.494Z,4.85
2023-02-27T17:18:49.453Z,5.04
2023-02-27T17:21:16.360Z,4.98
2023-02-27T17:23:43.240Z,4.80
2023-02-27T17:26:09.891Z,4.80
2023-02-27T17:28:36.565Z,4.89
2023-02-27T17:31:11.402Z,4.91
2023-02-27T17:33:38.102Z,4.76
2023-02-27T17:36:07.517Z,4.60
2023-02-27T17:38:35.172Z,4.60
2023-02-27T17:41:09.679Z,4.50
2023-02-27T17:43:37.645Z,4.47
2023-02-27T17:46:08.936Z,4.37
2023-02-27T17:48:37.351Z,4.32
2023-02-27T17:51:09.636Z,4.26
2023-02-27T17:53:37.974Z,4.40
2023-02-27T17:56:05.979Z,4.23
2023-02-27T17:58:33.967Z,4.22
2023-02-27T18:01:12.693Z,4.11
2023-02-27T18:03:39.723Z,4.04
2023-02-27T18:06:07.850Z,4.01
2023-02-27T18:08:34.905Z,3.92
2023-02-27T18:11:01.890Z,3.89
2023-02-27T18:13:28.946Z,3.95
2023-02-27T18:15:56.962Z,3.90
2023-02-27T18:18:23.924Z,3.79
2023-02-27T18:21:06.896Z,3.82
2023-02-27T18:23:34.035Z,3.89
2023-02-27T18:26:00.999Z,3.88
2023-02-27T18:28:28.420Z,3.80
2023-02-27T18:30:55.532Z,3.67
2023-02-27T18:33:23.285Z,3.69
2023-02-27T18:35:50.428Z,3.56
2023-02-27T18:38:17.450Z,3.59
2023-02-27T18:40:44.420Z,3.74
2023-02-27T18:43:11.513Z,3.57
2023-02-27T18:45:38.624Z,3.34
2023-02-27T18:48:06.007Z,3.06
2023-02-27T18:50:32.695Z,2.97
2023-02-27T18:53:00.295Z,2.76
2023-02-27T18:55:26.947Z,2.71
2023-02-27T18:57:53.829Z,2.62
2023-02-27T19:00:24.254Z,2.59
2023-02-27T19:02:51.955Z,2.58
2023-02-27T19:05:19.413Z,2.73
2023-02-27T19:07:46.471Z,2.65
2023-02-27T19:10:15.091Z,2.54
2023-02-27T19:12:42.633Z,2.43
2023-02-27T19:15:10.769Z,2.30
2023-02-27T19:17:37.805Z,2.30
2023-02-27T19:20:07.846Z,2.15
2023-02-27T19:22:34.928Z,2.09
2023-02-27T19:25:01.617Z,2.11
2023-02-27T19:27:31.159Z,2.07
2023-02-27T19:29:57.818Z,2.22
2023-02-27T19:32:24.681Z,2.19
2023-02-27T19:34:51.482Z,2.25
2023-02-27T19:37:18.258Z,2.23
2023-02-27T19:39:45.164Z,2.31
2023-02-27T19:42:12.214Z,2.49
2023-02-27T19:44:40.485Z,2.73
2023-02-27T19:47:07.263Z,2.88
2023-02-27T19:49:34.028Z,2.84
2023-02-27T19:52:00.748Z,2.89
2023-02-27T19:54:27.875Z,3.00
2023-02-27T19:56:54.991Z,3.06
2023-02-27T19:59:24.627Z,3.00
2023-02-27T20:01:51.977Z,3.02
2023-02-27T20:04:18.987Z,2.99
2023-02-27T20:06:49.480Z,2.99
2023-02-27T20:09:17.873Z,2.92
2023-02-27T20:11:51.611Z,2.71
2023-02-27T20:14:18.355Z,2.55
2023-02-27T20:16:45.856Z,2.51
2023-02-27T20:19:14.802Z,2.45
2023-02-27T20:21:41.640Z,2.49
2023-02-27T20:24:10.346Z,2.58
2023-02-27T20:26:43.183Z,2.78
2023-02-27T20:29:13.463Z,2.89
2023-02-27T20:31:42.548Z,2.89
2023-02-27T20:34:11.438Z,2.98
2023-02-27T20:36:39.569Z,3.12
2023-02-27T20:39:06.960Z,3.11
2023-02-27T20:41:54.029Z,3.09
2023-02-27T20:44:20.646Z,3.14
2023-02-27T20:46:49.306Z,3.13
2023-02-27T20:49:16.982Z,3.09
2023-02-27T20:51:44.441Z,2.97
2023-02-27T20:54:20.082Z,2.94
2023-02-27T20:56:48.569Z,2.98
2023-02-27T20:59:16.859Z,3.05
2023-02-27T21:01:51.614Z,3.24
2023-02-27T21:04:24.911Z,3.40
2023-02-27T21:06:52.946Z,3.47
2023-02-27T21:09:19.506Z,3.48
2023-02-27T21:11:46.108Z,3.63
2023-02-27T21:14:12.993Z,3.48
2023-02-27T21:16:40.519Z,3.31
2023-02-27T21:19:08.122Z,3.25
2023-02-27T21:21:35.553Z,3.18
2023-02-27T21:24:02.574Z,3.05
2023-02-27T21:26:34.954Z,2.98
2023-02-27T21:29:05.503Z,2.92
2023-02-27T21:31:33.527Z,2.91
2023-02-27T21:34:04.363Z,2.89
2023-02-27T21:36:34.161Z,2.88
2023-02-27T21:39:04.585Z,2.85
2023-02-27T21:41:31.683Z,2.81
2023-02-27T21:44:05.218Z,2.76
2023-02-27T21:46:32.716Z,2.69
2023-02-27T21:48:59.258Z,2.66
2023-02-27T21:51:39.343Z,2.64
2023-02-27T21:54:09.110Z,2.59
2023-02-27T21:56:40.573Z,2.62
2023-02-27T21:59:09.274Z,2.55
2023-02-27T22:01:38.710Z,2.53
2023-02-27T22:04:07.403Z,2.49
2023-02-27T22:06:40.509Z,2.48
2023-02-27T22:09:08.941Z,2.40
2023-02-27T22:11:35.896Z,2.36
2023-02-27T22:14:08.775Z,2.35
2023-02-27T22:16:42.022Z,2.34
2023-02-27T22:19:21.906Z,2.35
2023-02-27T22:21:48.642Z,2.31
2023-02-27T22:24:15.639Z,2.30
2023-02-27T22:26:42.625Z,2.28
2023-02-27T22:29:09.367Z,2.31
2023-02-27T22:31:37.797Z,2.30
2023-02-27T22:34:12.130Z,2.26
2023-02-27T22:36:41.138Z,2.18
2023-02-27T22:39:08.518Z,2.17
2023-02-27T22:41:41.375Z,2.13
2023-02-27T22:44:09.545Z,2.05
2023-02-27T22:46:40.955Z,2.10
2023-02-27T22:49:14.804Z,2.11
2023-02-27T22:51:41.532Z,2.12
2023-02-27T22:54:10.136Z,2.10
2023-02-27T22:56:37.205Z,2.01
2023-02-27T22:59:05.384Z,1.91
2023-02-27T23:01:34.477Z,1.82
2023-02-27T23:04:07.383Z,1.71
2023-02-27T23:06:39.512Z,1.63
2023-02-27T23:09:08.098Z,1.58
2023-02-27T23:11:35.020Z,1.56
2023-02-27T23:14:01.691Z,1.66
2023-02-27T23:16:28.788Z,1.59
2023-02-27T23:18:58.312Z,1.50
2023-02-27T23:21:34.392Z,1.48
2023-02-27T23:24:07.946Z,1.50
2023-02-27T23:26:39.487Z,1.50
2023-02-27T23:29:06.615Z,1.40
2023-02-27T23:31:35.577Z,1.40
2023-02-27T23:34:05.575Z,1.41
2023-02-27T23:36:33.914Z,1.37
2023-02-27T23:39:02.962Z,1.44
2023-02-27T23:41:30.331Z,1.42
2023-02-27T23:43:57.335Z,1.46
2023-02-27T23:46:24.145Z,1.43
2023-02-27T23:48:50.749Z,1.36
2023-02-27T23:51:17.315Z,1.33
2023-02-27T23:53:44.921Z,1.28
2023-02-27T23:56:21.461Z,1.28
2023-02-27T23:58:53.097Z,1.24
